Time;durP1;ratioP1;P1;durP2;ratioP2;P2;SDS_P1;SDS_P2;PMS_P1;PMS_P2;Temp;Humidity;BMP_temperature;BMP_pressure;BME280_temperature;BME280_humidity;BME280_pressure;Samples;Min_cycle;Max_cycle;Signal;HPM_P1;HPM_P2
2021/06/14 00:01:33;;;;;;;15.98;3.33;;;44.00;12.00;;;;;;4770083;30;20084;-67
2021/06/14 00:04:00;;;;;;;23.48;3.05;;;43.80;12.50;;;;;;4768072;30;20571;-66
2021/06/14 00:06:27;;;;;;;25.42;3.97;;;43.70;12.70;;;;;;4768602;30;20129;-69
2021/06/14 00:08:53;;;;;;;22.30;3.63;;;43.60;12.80;;;;;;4769597;30;20568;-67
2021/06/14 00:11:20;;;;;;;25.25;3.80;;;43.60;13.10;;;;;;4769746;30;20116;-67
2021/06/14 00:13:46;;;;;;;15.50;3.72;;;43.40;13.10;;;;;;4768824;30;20088;-67
2021/06/14 00:16:13;;;;;;;18.85;4.90;;;43.40;13.30;;;;;;4768662;30;20079;-67
2021/06/14 00:18:39;;;;;;;19.35;4.53;;;43.40;13.10;;;;;;4769782;30;20120;-67
2021/06/14 00:21:09;;;;;;;18.55;4.57;;;43.40;13.30;;;;;;4769508;30;20083;-68
2021/06/14 00:23:37;;;;;;;26.95;3.67;;;43.30;13.20;;;;;;4768537;30;20100;-67
2021/06/14 00:26:10;;;;;;;23.02;3.60;;;43.30;13.50;;;;;;4769393;30;20072;-68
2021/06/14 00:28:38;;;;;;;16.42;3.10;;;43.20;13.30;;;;;;4769926;30;20096;-68
2021/06/14 00:31:05;;;;;;;18.00;2.67;;;43.10;13.50;;;;;;4768542;30;20461;-68
2021/06/14 00:33:32;;;;;;;17.35;2.88;;;43.00;13.40;;;;;;4769422;30;20138;-67
2021/06/14 00:35:59;;;;;;;18.80;3.05;;;43.00;13.70;;;;;;4769808;30;20095;-69
2021/06/14 00:38:25;;;;;;;17.20;3.45;;;42.80;13.30;;;;;;4768948;30;20119;-67
2021/06/14 00:40:52;;;;;;;14.85;2.83;;;42.70;13.30;;;;;;4768091;30;20076;-67
2021/06/14 00:43:19;;;;;;;30.88;3.42;;;42.60;13.90;;;;;;4767960;30;20542;-69
2021/06/14 00:45:50;;;;;;;30.38;3.05;;;42.60;14.20;;;;;;4769071;30;20118;-69
2021/06/14 00:48:17;;;;;;;25.77;3.45;;;42.70;14.00;;;;;;4767954;30;20080;-68
2021/06/14 00:50:46;;;;;;;15.18;2.55;;;42.60;14.00;;;;;;4769127;30;20126;-67
2021/06/14 00:53:26;;;;;;;18.38;2.15;;;42.40;14.00;;;;;;4769555;30;20089;-68
2021/06/14 00:55:53;;;;;;;16.38;2.67;;;42.30;13.40;;;;;;4768127;30;20100;-67
2021/06/14 00:58:21;;;;;;;15.40;3.13;;;42.30;13.40;;;;;;4767419;30;20081;-68
2021/06/14 01:00:48;;;;;;;20.58;2.40;;;42.30;13.30;;;;;;4767783;30;20073;-66
2021/06/14 01:03:14;;;;;;;9.35;1.92;;;42.20;13.30;;;;;;4768791;30;20637;-70
2021/06/14 01:05:53;;;;;;;14.23;2.67;;;42.10;13.30;;;;;;4767422;30;20486;-70
2021/06/14 01:08:20;;;;;;;12.25;2.40;;;42.20;13.60;;;;;;4768425;30;20072;-69
2021/06/14 01:10:50;;;;;;;15.48;2.40;;;42.10;13.50;;;;;;4769068;30;20084;-69
2021/06/14 01:13:40;;;;;;;12.02;2.00;;;42.10;13.30;;;;;;4768164;30;20163;-70
2021/06/14 01:16:21;;;;;;;14.23;2.33;;;41.80;12.70;;;;;;4768918;30;20086;-70
2021/06/14 01:19:03;;;;;;;17.85;2.40;;;41.60;12.90;;;;;;4769097;30;20095;-70
2021/06/14 01:21:37;;;;;;;11.93;1.98;;;41.60;12.80;;;;;;4769014;30;20107;-71
2021/06/14 01:24:11;;;;;;;17.92;2.33;;;41.40;12.70;;;;;;4768934;30;20579;-71
2021/06/14 01:26:50;;;;;;;20.60;2.10;;;41.30;12.10;;;;;;4768634;30;20077;-70
2021/06/14 01:29:18;;;;;;;8.75;2.17;;;41.30;11.90;;;;;;4769672;30;20133;-71
2021/06/14 01:31:45;;;;;;;12.80;2.45;;;41.30;11.70;;;;;;4770838;30;20080;-71
2021/06/14 01:34:12;;;;;;;10.48;2.17;;;41.10;12.00;;;;;;4772311;30;20084;-70
2021/06/14 01:36:41;;;;;;;12.10;2.10;;;40.90;12.20;;;;;;4769851;30;20151;-70
2021/06/14 01:39:09;;;;;;;11.57;2.00;;;40.90;12.10;;;;;;4769233;30;20147;-70
2021/06/14 01:41:39;;;;;;;8.75;1.80;;;40.60;11.80;;;;;;4768956;30;20096;-69
2021/06/14 01:44:07;;;;;;;7.07;1.70;;;40.50;11.60;;;;;;4767977;30;20485;-70
2021/06/14 01:46:39;;;;;;;12.27;2.47;;;40.40;12.10;;;;;;4768837;30;20108;-69
2021/06/14 01:49:11;;;;;;;14.00;2.75;;;40.30;12.40;;;;;;4769129;30;20474;-69
2021/06/14 01:51:40;;;;;;;10.77;1.98;;;40.10;11.90;;;;;;4768744;30;20450;-70
2021/06/14 01:54:07;;;;;;;17.40;2.10;;;40.10;12.30;;;;;;4768325;30;20161;-70
2021/06/14 01:56:42;;;;;;;17.27;2.70;;;40.00;12.70;;;;;;4772158;30;20084;-70
2021/06/14 01:59:14;;;;;;;9.98;2.25;;;39.90;12.70;;;;;;4771181;30;20079;-70
2021/06/14 02:01:43;;;;;;;12.80;2.60;;;39.80;12.60;;;;;;4770928;30;20077;-70
2021/06/14 02:04:09;;;;;;;13.75;3.28;;;39.70;13.20;;;;;;4772129;30;20096;-70
2021/06/14 02:06:41;;;;;;;16.75;3.75;;;39.60;13.60;;;;;;4770908;30;20562;-71
2021/06/14 02:09:13;;;;;;;19.67;3.88;;;39.50;13.70;;;;;;4771488;30;20565;-70
2021/06/14 02:11:44;;;;;;;15.00;4.10;;;39.40;13.20;;;;;;4772014;30;20083;-71
2021/06/14 02:14:29;;;;;;;14.32;3.35;;;39.20;26.40;;;;;;4770894;30;20032;-70
2021/06/14 02:16:57;;;;;;;10.77;3.00;;;38.70;29.40;;;;;;4772037;30;20390;-69
2021/06/14 02:19:23;;;;;;;18.05;3.08;;;39.00;27.90;;;;;;4772202;30;20464;-70
2021/06/14 02:21:50;;;;;;;15.27;2.28;;;39.00;13.30;;;;;;4770657;30;20096;-69
2021/06/14 02:24:17;;;;;;;11.02;2.10;;;38.80;13.20;;;;;;4771859;30;20558;-71
2021/06/14 02:26:46;;;;;;;14.15;2.10;;;38.70;13.30;;;;;;4771814;30;20454;-71
2021/06/14 02:29:14;;;;;;;13.52;2.08;;;38.60;13.60;;;;;;4771821;30;20088;-70
2021/06/14 02:31:40;;;;;;;18.08;2.55;;;38.40;13.80;;;;;;4770794;30;20084;-70
2021/06/14 02:34:08;;;;;;;11.43;2.42;;;38.30;14.30;;;;;;4771824;30;20610;-70
2021/06/14 02:36:36;;;;;;;24.85;2.85;;;38.20;14.60;;;;;;4771985;30;20088;-71
2021/06/14 02:39:13;;;;;;;11.80;2.85;;;38.20;15.00;;;;;;4772266;30;20140;-70
2021/06/14 02:41:42;;;;;;;18.30;3.17;;;38.10;15.50;;;;;;4772621;30;20086;-71
2021/06/14 02:44:09;;;;;;;15.23;3.30;;;37.90;16.00;;;;;;4773178;30;20657;-70
2021/06/14 02:46:39;;;;;;;14.05;3.17;;;37.90;16.40;;;;;;4775466;30;20144;-70
2021/06/14 02:49:06;;;;;;;11.82;3.20;;;37.70;16.80;;;;;;4773752;30;20088;-71
2021/06/14 02:51:35;;;;;;;13.15;3.00;;;37.50;17.20;;;;;;4776057;30;20151;-72
2021/06/14 02:54:04;;;;;;;14.52;3.08;;;37.40;17.40;;;;;;4775387;30;20178;-70
2021/06/14 02:56:35;;;;;;;22.42;3.65;;;37.30;17.70;;;;;;4775646;30;20091;-70
2021/06/14 02:59:06;;;;;;;24.75;3.40;;;37.20;17.90;;;;;;4776532;30;20082;-71
2021/06/14 03:01:35;;;;;;;27.55;3.85;;;37.10;18.20;;;;;;4773814;30;20083;-70
2021/06/14 03:04:06;;;;;;;18.27;3.90;;;37.00;18.40;;;;;;4772704;30;20093;-70
2021/06/14 03:06:33;;;;;;;14.52;3.53;;;37.00;18.60;;;;;;4770756;30;20076;-70
2021/06/14 03:09:03;;;;;;;16.75;3.28;;;36.90;18.80;;;;;;4770146;30;20077;-70
2021/06/14 03:11:30;;;;;;;23.58;3.33;;;36.80;19.20;;;;;;4770408;30;20081;-69
2021/06/14 03:13:58;;;;;;;18.25;3.78;;;36.60;19.50;;;;;;4769904;30;20175;-70
2021/06/14 03:16:26;;;;;;;15.25;3.78;;;36.50;19.70;;;;;;4770186;30;20076;-71
2021/06/14 03:18:54;;;;;;;25.40;5.00;;;36.40;20.10;;;;;;4770432;30;20088;-70
2021/06/14 03:21:23;;;;;;;19.88;3.67;;;36.30;20.40;;;;;;4772111;30;20080;-71
2021/06/14 03:23:51;;;;;;;17.92;3.47;;;36.20;20.60;;;;;;4771579;30;20122;-71
2021/06/14 03:26:19;;;;;;;14.57;3.63;;;36.10;20.90;;;;;;4772475;30;20493;-71
2021/06/14 03:28:48;;;;;;;23.83;3.40;;;36.00;21.30;;;;;;4771233;30;20092;-70
2021/06/14 03:31:16;;;;;;;20.67;3.58;;;35.90;21.60;;;;;;4770927;30;20076;-70
2021/06/14 03:33:46;;;;;;;18.38;3.50;;;35.90;22.10;;;;;;4770789;30;20095;-70
2021/06/14 03:36:16;;;;;;;25.27;4.40;;;35.80;22.50;;;;;;4770885;30;20416;-71
2021/06/14 03:38:51;;;;;;;24.98;5.40;;;35.70;22.70;;;;;;4769331;30;20128;-71
2021/06/14 03:41:19;;;;;;;27.88;4.75;;;35.60;23.00;;;;;;4770479;30;20095;-71
2021/06/14 03:43:46;;;;;;;30.83;5.18;;;35.60;23.20;;;;;;4770681;30;20135;-70
2021/06/14 03:46:12;;;;;;;21.95;5.07;;;35.50;23.30;;;;;;4770727;30;20559;-71
2021/06/14 03:48:39;;;;;;;32.13;4.93;;;35.50;23.50;;;;;;4770340;30;20084;-72
2021/06/14 03:51:06;;;;;;;25.05;5.20;;;35.40;23.50;;;;;;4770369;30;20557;-70
2021/06/14 03:53:33;;;;;;;20.63;4.15;;;35.40;23.70;;;;;;4768245;30;20538;-70
2021/06/14 03:56:08;;;;;;;22.42;4.57;;;35.30;24.00;;;;;;4770408;30;20076;-71
2021/06/14 03:58:36;;;;;;;19.55;3.92;;;35.10;24.00;;;;;;4770284;30;20075;-70
2021/06/14 04:01:03;;;;;;;33.13;4.53;;;35.00;24.10;;;;;;4770214;30;20080;-69
2021/06/14 04:03:30;;;;;;;19.35;4.75;;;35.00;24.20;;;;;;4770220;30;20108;-69
2021/06/14 04:06:01;;;;;;;29.52;5.05;;;34.80;24.40;;;;;;4769569;30;20145;-69
2021/06/14 04:08:28;;;;;;;27.00;4.78;;;34.80;24.90;;;;;;4769074;30;20080;-70
2021/06/14 04:10:54;;;;;;;25.05;5.95;;;34.60;25.20;;;;;;4770249;30;20072;-71
2021/06/14 04:13:21;;;;;;;32.30;5.35;;;34.60;25.50;;;;;;4770255;30;20167;-69
2021/06/14 04:15:48;;;;;;;37.13;5.95;;;34.50;26.00;;;;;;4769693;30;20076;-70
2021/06/14 04:18:15;;;;;;;33.28;4.63;;;34.50;26.30;;;;;;4768950;30;20084;-70
2021/06/14 04:20:42;;;;;;;28.67;4.97;;;34.50;26.70;;;;;;4769890;30;20084;-70
2021/06/14 04:23:08;;;;;;;32.40;4.35;;;34.40;27.00;;;;;;4768330;30;20104;-69
2021/06/14 04:25:35;;;;;;;36.03;5.15;;;34.30;27.30;;;;;;4769536;30;20104;-69
2021/06/14 04:28:03;;;;;;;39.38;5.60;;;34.20;27.80;;;;;;4769585;30;20516;-70
2021/06/14 04:30:30;;;;;;;40.28;5.53;;;34.10;28.00;;;;;;4769881;30;20163;-70
2021/06/14 04:32:56;;;;;;;39.97;5.40;;;34.00;28.30;;;;;;4769394;30;20156;-69
2021/06/14 04:35:23;;;;;;;30.52;5.88;;;33.90;28.30;;;;;;4769662;30;20080;-69
2021/06/14 04:37:49;;;;;;;30.88;5.03;;;33.80;28.30;;;;;;4769326;30;20120;-70
2021/06/14 04:40:16;;;;;;;26.90;4.93;;;33.80;28.20;;;;;;4769982;30;20182;-69
2021/06/14 04:42:42;;;;;;;43.13;6.00;;;33.70;28.10;;;;;;4769660;30;20096;-69
2021/06/14 04:45:10;;;;;;;29.73;5.25;;;33.60;28.20;;;;;;4768162;30;20626;-69
2021/06/14 04:47:36;;;;;;;31.63;5.53;;;33.60;28.20;;;;;;4770363;30;20092;-70
2021/06/14 04:50:04;;;;;;;33.38;5.15;;;33.60;28.20;;;;;;4768333;30;21009;-70
2021/06/14 04:52:31;;;;;;;31.35;4.55;;;33.50;28.30;;;;;;4769841;30;20165;-69
2021/06/14 04:54:57;;;;;;;31.85;4.82;;;33.50;28.30;;;;;;4769805;30;20083;-69
2021/06/14 04:57:24;;;;;;;23.92;5.40;;;33.30;28.30;;;;;;4769538;30;20077;-69
2021/06/14 04:59:52;;;;;;;28.88;5.22;;;33.20;28.60;;;;;;4769663;30;20167;-70
2021/06/14 05:02:18;;;;;;;33.45;5.25;;;33.10;28.70;;;;;;4769469;30;20191;-69
2021/06/14 05:04:45;;;;;;;31.17;5.50;;;33.00;30.00;;;;;;4769447;30;20547;-69
2021/06/14 05:07:11;;;;;;;20.17;4.75;;;33.10;28.90;;;;;;4768234;30;20099;-69
2021/06/14 05:09:38;;;;;;;32.05;5.85;;;32.90;28.90;;;;;;4767982;30;20087;-69
2021/06/14 05:12:05;;;;;;;32.03;5.57;;;33.00;29.00;;;;;;4768054;30;20080;-70
2021/06/14 05:14:31;;;;;;;29.95;5.05;;;33.00;29.10;;;;;;4769491;30;20084;-69
2021/06/14 05:16:58;;;;;;;20.70;4.45;;;32.90;29.00;;;;;;4769617;30;20159;-71
2021/06/14 05:19:24;;;;;;;26.92;4.75;;;32.90;28.80;;;;;;4771172;30;20119;-69
2021/06/14 05:21:51;;;;;;;26.15;5.22;;;32.80;28.50;;;;;;4769454;30;20096;-68
2021/06/14 05:24:17;;;;;;;20.65;4.95;;;32.80;28.50;;;;;;4769195;30;20103;-69
2021/06/14 05:26:44;;;;;;;30.52;5.80;;;32.80;28.40;;;;;;4766913;30;20152;-68
2021/06/14 05:29:11;;;;;;;33.63;5.13;;;32.80;28.30;;;;;;4769531;30;20566;-69
2021/06/14 05:31:39;;;;;;;25.92;4.65;;;32.70;28.20;;;;;;4770925;30;20103;-69
2021/06/14 05:34:05;;;;;;;26.25;4.97;;;32.70;28.30;;;;;;4772444;30;20138;-70
2021/06/14 05:36:32;;;;;;;19.10;5.75;;;32.70;28.40;;;;;;4771182;30;20527;-69
2021/06/14 05:39:01;;;;;;;22.75;5.45;;;32.70;28.50;;;;;;4772058;30;20124;-70
2021/06/14 05:41:28;;;;;;;30.55;5.60;;;32.70;28.60;;;;;;4771963;30;20076;-71
2021/06/14 05:43:54;;;;;;;31.92;5.35;;;32.70;28.50;;;;;;4771093;30;20187;-71
2021/06/14 05:46:21;;;;;;;22.35;5.60;;;32.60;28.80;;;;;;4772404;30;20076;-69
2021/06/14 05:48:48;;;;;;;26.52;5.57;;;32.50;29.10;;;;;;4772109;30;20092;-69
2021/06/14 05:51:14;;;;;;;22.52;5.40;;;32.40;29.00;;;;;;4771913;30;20084;-69
2021/06/14 05:53:41;;;;;;;23.13;5.55;;;32.40;29.30;;;;;;4771843;30;20582;-70
2021/06/14 05:56:07;;;;;;;27.50;5.63;;;32.40;29.50;;;;;;4772186;30;20080;-69
2021/06/14 05:58:34;;;;;;;25.60;5.80;;;32.30;29.80;;;;;;4771906;30;20084;-70
2021/06/14 06:01:00;;;;;;;28.85;6.20;;;32.30;29.90;;;;;;4771983;30;20072;-69
2021/06/14 06:03:27;;;;;;;25.75;5.85;;;32.10;30.10;;;;;;4770675;30;20107;-70
2021/06/14 06:05:53;;;;;;;26.60;6.05;;;32.10;30.40;;;;;;4772115;30;20427;-69
2021/06/14 06:08:20;;;;;;;24.08;5.72;;;32.00;30.50;;;;;;4771684;30;20072;-70
2021/06/14 06:10:46;;;;;;;29.77;6.65;;;32.00;30.90;;;;;;4771620;30;20167;-70
2021/06/14 06:13:13;;;;;;;18.75;6.43;;;31.90;31.50;;;;;;4771829;30;20084;-70
2021/06/14 06:15:40;;;;;;;22.73;5.85;;;31.80;32.10;;;;;;4771791;30;20431;-70
2021/06/14 06:18:06;;;;;;;19.98;6.22;;;31.80;32.70;;;;;;4771514;30;20088;-70
2021/06/14 06:20:33;;;;;;;27.27;6.68;;;31.70;33.30;;;;;;4770484;30;20665;-70
2021/06/14 06:22:59;;;;;;;24.88;6.50;;;31.70;33.50;;;;;;4770593;30;20104;-70
2021/06/14 06:25:27;;;;;;;16.85;4.75;;;31.60;33.60;;;;;;4770515;30;20080;-70
2021/06/14 06:27:54;;;;;;;27.73;5.72;;;31.50;33.50;;;;;;4771657;30;20167;-70
2021/06/14 06:30:24;;;;;;;23.52;5.95;;;31.50;33.10;;;;;;4771557;30;20077;-70
2021/06/14 06:32:52;;;;;;;18.38;4.63;;;31.60;32.60;;;;;;4770272;30;20547;-69
2021/06/14 06:35:19;;;;;;;20.80;5.30;;;31.60;32.60;;;;;;4770131;30;20092;-70
2021/06/14 06:37:46;;;;;;;23.23;5.68;;;31.50;32.90;;;;;;4771271;30;20202;-70
2021/06/14 06:40:13;;;;;;;20.35;5.45;;;31.50;33.60;;;;;;4771088;30;20179;-70
2021/06/14 06:42:41;;;;;;;17.00;5.20;;;31.50;34.00;;;;;;4769598;30;20119;-69
2021/06/14 06:45:09;;;;;;;22.60;5.85;;;31.40;34.20;;;;;;4771328;30;20132;-68
2021/06/14 06:47:36;;;;;;;26.15;6.72;;;31.40;34.20;;;;;;4770019;30;20080;-67
2021/06/14 06:50:04;;;;;;;20.35;6.47;;;31.40;34.60;;;;;;4769876;30;20142;-67
2021/06/14 06:52:31;;;;;;;28.27;6.60;;;31.40;35.20;;;;;;4769772;30;20081;-67
2021/06/14 06:54:58;;;;;;;33.20;6.10;;;31.40;36.10;;;;;;4770736;30;20076;-68
2021/06/14 06:57:25;;;;;;;27.63;6.32;;;31.30;36.90;;;;;;4770988;30;20142;-68
2021/06/14 06:59:54;;;;;;;19.63;5.90;;;31.30;37.50;;;;;;4769535;30;20123;-67
2021/06/14 07:02:21;;;;;;;34.90;5.60;;;31.30;37.80;;;;;;4771108;30;20081;-67
2021/06/14 07:04:47;;;;;;;21.10;5.15;;;31.30;38.30;;;;;;4771162;30;20168;-67
2021/06/14 07:07:14;;;;;;;20.77;5.47;;;31.30;38.60;;;;;;4771155;30;20084;-67
2021/06/14 07:09:41;;;;;;;26.45;6.00;;;31.30;39.00;;;;;;4772030;30;20574;-66
2021/06/14 07:12:08;;;;;;;20.98;5.63;;;31.20;39.50;;;;;;4771723;30;20088;-67
2021/06/14 07:14:35;;;;;;;27.00;6.45;;;31.10;40.60;;;;;;4771201;30;20112;-67
2021/06/14 07:17:04;;;;;;;34.28;5.53;;;31.00;41.60;;;;;;4770468;30;20557;-67
2021/06/14 07:19:31;;;;;;;22.50;5.05;;;31.00;43.30;;;;;;4770921;30;20084;-67
2021/06/14 07:21:58;;;;;;;22.33;4.90;;;30.90;43.80;;;;;;4769996;30;20076;-67
2021/06/14 07:24:24;;;;;;;19.48;4.30;;;30.80;44.30;;;;;;4770070;30;20462;-67
2021/06/14 07:26:51;;;;;;;22.83;5.30;;;30.80;44.70;;;;;;4769808;30;20520;-67
2021/06/14 07:29:17;;;;;;;21.70;5.47;;;30.80;45.00;;;;;;4770682;30;20100;-66
2021/06/14 07:31:44;;;;;;;25.38;5.15;;;30.70;45.60;;;;;;4770566;30;20080;-66
2021/06/14 07:34:11;;;;;;;26.42;5.20;;;30.70;46.10;;;;;;4769367;30;20552;-67
2021/06/14 07:36:37;;;;;;;31.83;5.22;;;30.60;46.00;;;;;;4770282;30;20077;-66
2021/06/14 07:39:07;;;;;;;31.67;4.60;;;30.50;46.30;;;;;;4770417;30;20119;-67
2021/06/14 07:41:34;;;;;;;21.58;4.55;;;30.50;46.80;;;;;;4770316;30;20157;-67
2021/06/14 07:44:04;;;;;;;25.02;5.50;;;30.40;47.50;;;;;;4769574;30;20112;-67
2021/06/14 07:46:30;;;;;;;25.60;5.45;;;30.30;47.90;;;;;;4769946;30;20100;-68
2021/06/14 07:49:03;;;;;;;26.27;5.15;;;30.20;48.50;;;;;;4769071;30;20545;-67
2021/06/14 07:51:30;;;;;;;25.35;5.00;;;30.20;49.50;;;;;;4770007;30;20080;-67
2021/06/14 07:53:56;;;;;;;16.17;4.43;;;30.20;49.90;;;;;;4769012;30;20171;-67
2021/06/14 07:56:23;;;;;;;23.75;4.60;;;30.10;50.20;;;;;;4770817;30;20408;-67
2021/06/14 07:58:50;;;;;;;26.33;5.13;;;30.10;50.40;;;;;;4770219;30;20177;-67
2021/06/14 08:01:16;;;;;;;27.25;5.65;;;30.10;50.60;;;;;;4770170;30;20079;-68
2021/06/14 08:03:47;;;;;;;29.23;5.38;;;30.10;50.60;;;;;;4770316;30;20108;-67
2021/06/14 08:06:13;;;;;;;20.60;4.80;;;30.10;50.50;;;;;;4768575;30;20088;-67
2021/06/14 08:08:40;;;;;;;24.30;5.13;;;30.00;50.40;;;;;;4769140;30;20498;-67
2021/06/14 08:11:08;;;;;;;24.55;4.72;;;30.00;50.60;;;;;;4770017;30;20078;-67
2021/06/14 08:13:34;;;;;;;25.48;5.63;;;29.90;51.10;;;;;;4771072;30;20072;-67
2021/06/14 08:16:01;;;;;;;27.65;5.63;;;29.90;51.40;;;;;;4770412;30;20108;-66
2021/06/14 08:18:37;;;;;;;28.20;5.00;;;29.80;51.40;;;;;;4769993;30;20084;-67
2021/06/14 08:21:26;;;;;;;27.45;6.45;;;29.80;51.60;;;;;;4772032;30;20074;-67
2021/06/14 08:26:38;;;;;;;24.52;4.85;;;29.80;52.30;;;;;;4769244;30;20106;-67
2021/06/14 08:29:04;;;;;;;27.40;5.68;;;29.70;52.70;;;;;;4769776;30;20076;-67
2021/06/14 08:31:34;;;;;;;32.25;5.88;;;29.60;53.30;;;;;;4769674;30;20083;-67
2021/06/14 08:34:01;;;;;;;30.63;6.28;;;29.50;53.90;;;;;;4768689;30;20531;-67
2021/06/14 08:36:30;;;;;;;49.17;6.93;;;29.50;54.30;;;;;;4769426;30;20071;-67
2021/06/14 08:38:58;;;;;;;25.55;5.70;;;29.40;54.50;;;;;;4769471;30;20834;-67
2021/06/14 08:41:25;;;;;;;26.48;5.57;;;29.40;54.50;;;;;;4769832;30;20087;-67
2021/06/14 08:43:54;;;;;;;28.73;5.65;;;29.40;54.20;;;;;;4769368;30;20104;-66
2021/06/14 08:46:21;;;;;;;28.02;5.45;;;29.20;54.30;;;;;;4769427;30;20083;-67
2021/06/14 08:48:50;;;;;;;28.52;6.55;;;29.10;54.50;;;;;;4768178;30;20427;-67
2021/06/14 08:51:17;;;;;;;26.85;5.80;;;29.10;54.50;;;;;;4769308;30;20123;-67
2021/06/14 08:53:43;;;;;;;27.63;6.03;;;29.10;54.50;;;;;;4769892;30;20110;-67
2021/06/14 08:56:10;;;;;;;27.20;6.18;;;29.00;54.90;;;;;;4769411;30;20081;-67
2021/06/14 08:58:37;;;;;;;20.58;4.97;;;28.90;55.20;;;;;;4768203;30;20233;-67
2021/06/14 09:01:04;;;;;;;32.03;5.95;;;29.00;55.40;;;;;;4769514;30;20079;-67
2021/06/14 09:03:31;;;;;;;26.38;6.07;;;29.00;55.40;;;;;;4771578;30;20104;-66
2021/06/14 09:05:58;;;;;;;28.15;6.25;;;29.00;55.50;;;;;;4773532;30;20221;-66
2021/06/14 09:08:24;;;;;;;33.50;7.20;;;29.00;55.70;;;;;;4773062;30;21046;-66
2021/06/14 09:10:55;;;;;;;34.05;7.75;;;29.00;55.70;;;;;;4772796;30;20107;-66
2021/06/14 09:13:28;;;;;;;37.63;9.57;;;29.00;56.40;;;;;;4772988;30;20087;-67
2021/06/14 09:16:09;;;;;;;33.78;9.13;;;29.00;56.00;;;;;;4772023;30;20104;-66
2021/06/14 09:18:38;;;;;;;34.45;9.68;;;28.90;56.30;;;;;;4773296;30;20176;-67
2021/06/14 09:21:15;;;;;;;37.55;10.45;;;28.80;56.60;;;;;;4772049;30;20447;-66
2021/06/14 09:23:52;;;;;;;39.95;12.30;;;28.70;57.00;;;;;;4772525;30;20149;-66
2021/06/14 09:26:39;;;;;;;42.15;11.07;;;28.80;57.30;;;;;;4772081;30;20535;-66
2021/06/14 09:29:12;;;;;;;39.88;10.68;;;28.80;57.30;;;;;;4771158;30;20080;-67
2021/06/14 09:31:45;;;;;;;39.40;10.35;;;28.70;57.60;;;;;;4772498;30;20119;-66
2021/06/14 09:34:13;;;;;;;41.80;11.18;;;28.70;57.50;;;;;;4771633;30;20158;-66
2021/06/14 09:36:41;;;;;;;33.53;9.90;;;28.60;57.80;;;;;;4772347;30;20506;-67
2021/06/14 09:39:12;;;;;;;48.22;11.38;;;28.60;57.90;;;;;;4772297;30;20123;-66
2021/06/14 09:41:57;;;;;;;31.48;11.35;;;28.60;57.90;;;;;;4756628;30;20555;-66
2021/06/14 09:44:33;;;;;;;36.75;10.57;;;28.60;57.90;;;;;;4770498;30;20099;-66
2021/06/14 09:47:05;;;;;;;37.45;10.93;;;28.50;57.90;;;;;;4771861;30;20080;-66
2021/06/14 09:49:33;;;;;;;31.77;10.13;;;28.50;58.10;;;;;;4771603;30;20091;-66
2021/06/14 09:51:59;;;;;;;36.53;10.70;;;28.40;58.40;;;;;;4772056;30;20073;-66
2021/06/14 09:54:36;;;;;;;39.72;10.75;;;28.40;58.70;;;;;;4770792;30;20084;-65
2021/06/14 09:57:05;;;;;;;36.50;9.88;;;28.30;58.70;;;;;;4772248;30;20481;-66
2021/06/14 09:59:39;;;;;;;30.95;10.20;;;28.30;59.70;;;;;;4771297;30;20084;-67
2021/06/14 10:02:17;;;;;;;39.30;10.43;;;28.20;59.30;;;;;;4772205;30;20083;-66
2021/06/14 10:04:51;;;;;;;30.50;10.30;;;28.20;59.10;;;;;;4771961;30;20547;-66
2021/06/14 10:07:18;;;;;;;29.88;9.80;;;28.20;59.20;;;;;;4771211;30;20105;-66
2021/06/14 10:09:55;;;;;;;38.42;10.15;;;28.00;59.20;;;;;;4771772;30;20144;-66
2021/06/14 10:12:26;;;;;;;34.97;8.90;;;28.00;59.50;;;;;;4770884;30;20430;-66
2021/06/14 10:15:00;;;;;;;47.40;10.57;;;28.00;59.30;;;;;;4771031;30;20108;-66
2021/06/14 10:17:39;;;;;;;36.35;9.40;;;28.00;59.40;;;;;;4769985;30;20520;-66
2021/06/14 10:20:16;;;;;;;33.00;9.30;;;27.90;59.40;;;;;;4771192;30;20089;-66
2021/06/14 10:22:44;;;;;;;37.05;9.10;;;27.90;59.70;;;;;;4771313;30;20095;-66
2021/06/14 10:25:15;;;;;;;35.00;8.80;;;27.70;60.30;;;;;;4770554;30;20171;-66
2021/06/14 10:27:42;;;;;;;35.55;9.63;;;27.60;60.30;;;;;;4771684;30;20076;-66
2021/06/14 10:30:14;;;;;;;31.77;8.75;;;27.60;60.40;;;;;;4771504;30;20080;-67
2021/06/14 10:32:43;;;;;;;32.58;8.88;;;27.50;60.80;;;;;;4771111;30;20541;-66
2021/06/14 10:35:13;;;;;;;38.05;8.35;;;27.50;60.60;;;;;;4769489;30;20528;-66
2021/06/14 10:37:46;;;;;;;37.75;8.98;;;27.60;60.40;;;;;;4771355;30;20160;-66
2021/06/14 10:40:19;;;;;;;37.08;9.38;;;27.60;60.20;;;;;;4770523;30;20095;-66
2021/06/14 10:42:46;;;;;;;33.65;9.68;;;27.70;61.20;;;;;;4770279;30;20143;-66
2021/06/14 10:45:19;;;;;;;28.63;8.93;;;27.70;60.60;;;;;;4769911;30;20458;-66
2021/06/14 10:47:48;;;;;;;31.95;9.32;;;27.60;60.10;;;;;;4770150;30;20118;-66
2021/06/14 10:50:21;;;;;;;39.63;9.52;;;27.60;60.20;;;;;;4771344;30;20084;-66
2021/06/14 10:52:47;;;;;;;31.75;8.32;;;27.60;60.10;;;;;;4771370;30;20522;-66
2021/06/14 10:55:17;;;;;;;30.02;9.10;;;27.60;60.10;;;;;;4772524;30;20178;-66
2021/06/14 10:57:44;;;;;;;38.58;9.27;;;27.70;60.00;;;;;;4771104;30;20095;-66
2021/06/14 11:00:20;;;;;;;36.25;10.00;;;27.70;59.90;;;;;;4770070;30;20084;-67
2021/06/14 11:02:58;;;;;;;31.73;9.47;;;27.60;59.90;;;;;;4770345;30;20187;-67
2021/06/14 11:05:31;;;;;;;38.22;8.68;;;27.60;60.00;;;;;;4770259;30;20102;-67
2021/06/14 11:07:57;;;;;;;38.60;9.45;;;27.60;60.10;;;;;;4769853;30;20084;-67
2021/06/14 11:10:28;;;;;;;38.53;9.77;;;27.60;60.10;;;;;;4770974;30;20110;-67
2021/06/14 11:13:15;;;;;;;36.25;8.77;;;27.60;59.80;;;;;;4770150;30;20090;-67
2021/06/14 11:15:49;;;;;;;33.38;8.20;;;27.60;59.60;;;;;;4770824;30;20080;-65
2021/06/14 11:18:27;;;;;;;39.38;9.52;;;27.50;59.60;;;;;;4768328;30;20152;-66
2021/06/14 11:21:16;;;;;;;43.60;11.10;;;27.50;59.70;;;;;;4769801;30;20076;-66
2021/06/14 11:23:48;;;;;;;37.90;10.25;;;27.60;59.40;;;;;;4770374;30;20104;-66
2021/06/14 11:26:27;;;;;;;39.00;11.80;;;27.60;59.00;;;;;;4769678;30;20090;-66
2021/06/14 11:28:54;;;;;;;46.92;12.82;;;27.50;58.90;;;;;;4770085;30;20080;-66
2021/06/14 11:31:27;;;;;;;52.20;15.07;;;27.50;58.50;;;;;;4770388;30;20475;-66
2021/06/14 11:34:05;;;;;;;61.45;18.13;;;27.50;58.50;;;;;;4767653;30;20084;-66
2021/06/14 11:36:34;;;;;;;56.47;17.95;;;27.50;58.30;;;;;;4769281;30;20141;-66
2021/06/14 11:39:13;;;;;;;67.65;20.92;;;27.50;57.90;;;;;;4770165;30;20128;-66
2021/06/14 11:41:40;;;;;;;63.10;19.15;;;27.40;57.60;;;;;;4769965;30;20084;-66
2021/06/14 11:44:29;;;;;;;58.45;17.52;;;27.30;57.50;;;;;;4768979;30;20633;-66
2021/06/14 11:47:17;;;;;;;50.67;14.90;;;27.30;57.10;;;;;;4769388;30;20549;-66
2021/06/14 11:49:45;;;;;;;42.15;12.32;;;27.40;55.40;;;;;;4769504;30;20088;-66
2021/06/14 11:52:33;;;;;;;28.77;9.30;;;27.30;55.10;;;;;;4770092;30;20705;-66
2021/06/14 11:55:07;;;;;;;32.17;9.07;;;27.30;53.80;;;;;;4769591;30;20080;-65
2021/06/14 11:57:40;;;;;;;34.78;8.23;;;27.40;53.50;;;;;;4769011;30;20079;-66
2021/06/14 12:00:14;;;;;;;33.78;8.35;;;27.30;52.80;;;;;;4769977;30;20072;-66
2021/06/14 12:02:41;;;;;;;31.73;7.68;;;27.30;52.80;;;;;;4769654;30;20096;-66
2021/06/14 12:05:11;;;;;;;28.52;7.68;;;27.40;52.50;;;;;;4768840;30;20088;-65
2021/06/14 12:07:40;;;;;;;35.30;8.57;;;27.40;51.50;;;;;;4769375;30;20523;-66
2021/06/14 12:10:09;;;;;;;39.90;11.70;;;27.30;50.80;;;;;;4768588;30;20123;-66
2021/06/14 12:12:37;;;;;;;41.50;12.95;;;27.30;50.30;;;;;;4769460;30;20077;-66
2021/06/14 12:15:07;;;;;;;39.97;12.50;;;27.10;50.30;;;;;;4769821;30;20565;-66
2021/06/14 12:17:37;;;;;;;44.17;13.45;;;27.10;50.60;;;;;;4768566;30;20080;-66
2021/06/14 12:20:08;;;;;;;42.17;14.05;;;27.10;50.50;;;;;;4768636;30;20161;-66
2021/06/14 12:22:36;;;;;;;46.42;13.60;;;27.00;50.50;;;;;;4768121;30;20111;-65
2021/06/14 12:25:09;;;;;;;40.50;12.73;;;27.00;50.60;;;;;;4769673;30;20588;-66
2021/06/14 12:27:36;;;;;;;37.20;12.40;;;27.00;50.70;;;;;;4768975;30;20082;-66
2021/06/14 12:30:08;;;;;;;36.28;10.98;;;27.00;50.70;;;;;;4769545;30;20084;-66
2021/06/14 12:32:35;;;;;;;40.17;9.75;;;27.00;50.80;;;;;;4768791;30;20435;-66
2021/06/14 12:35:06;;;;;;;33.60;9.68;;;27.00;50.80;;;;;;4769477;30;20198;-66
2021/06/14 12:37:32;;;;;;;38.70;9.15;;;26.90;50.80;;;;;;4769225;30;20120;-66
2021/06/14 12:40:17;;;;;;;33.65;10.32;;;26.80;51.00;;;;;;4767451;30;20141;-65
2021/06/14 12:42:44;;;;;;;39.20;12.50;;;26.80;51.10;;;;;;4769539;30;20183;-66
2021/06/14 12:45:17;;;;;;;46.10;12.20;;;26.80;51.00;;;;;;4769844;30;20558;-66
2021/06/14 12:47:45;;;;;;;40.72;12.05;;;26.80;51.00;;;;;;4768177;30;20084;-66
2021/06/14 12:50:25;;;;;;;47.42;14.00;;;26.80;51.00;;;;;;4769212;30;20092;-65